Time;durP1;ratioP1;P1;durP2;ratioP2;P2;SDS_P1;SDS_P2;PMS_P1;PMS_P2;Temp;Humidity;BMP_temperature;BMP_pressure;BME280_temperature;BME280_humidity;BME280_pressure;Samples;Min_cycle;Max_cycle;Signal;HPM_P1;HPM_P2
2022/11/28 00:03:07;;;;;;;6.18;3.20;;;8.90;99.90;;;;;;10472167;28;20033;-66
2022/11/28 00:08:08;;;;;;;7.93;3.72;;;8.90;99.90;;;;;;10468028;28;20063;-60
2022/11/28 00:13:09;;;;;;;5.40;3.17;;;8.90;99.90;;;;;;10469040;28;20474;-60
2022/11/28 00:18:10;;;;;;;7.05;3.38;;;8.90;99.90;;;;;;10469920;28;20115;-60
2022/11/28 00:23:10;;;;;;;6.10;3.33;;;8.90;99.90;;;;;;10467023;28;20037;-61
2022/11/28 00:28:11;;;;;;;7.43;3.50;;;8.90;99.90;;;;;;10469328;28;20028;-60
2022/11/28 00:33:12;;;;;;;5.72;3.40;;;8.90;99.90;;;;;;10467358;28;20385;-60
2022/11/28 00:38:12;;;;;;;6.60;3.65;;;8.90;99.90;;;;;;10471264;28;20063;-60
2022/11/28 00:43:13;;;;;;;6.57;3.60;;;9.00;99.90;;;;;;10468554;28;20043;-61
2022/11/28 00:48:14;;;;;;;6.20;3.72;;;9.00;99.90;;;;;;10470125;28;20068;-60
2022/11/28 00:53:15;;;;;;;5.40;3.30;;;9.00;99.90;;;;;;10452111;28;20029;-60
2022/11/28 00:58:15;;;;;;;7.57;3.47;;;9.00;99.90;;;;;;10456754;28;20384;-61
2022/11/28 01:03:16;;;;;;;8.02;4.10;;;9.00;99.90;;;;;;10463977;28;20120;-60
2022/11/28 01:08:17;;;;;;;5.25;3.40;;;9.00;99.90;;;;;;10443736;28;20033;-60
2022/11/28 01:13:17;;;;;;;6.65;3.70;;;8.90;99.90;;;;;;10458447;28;20078;-60
2022/11/28 01:18:18;;;;;;;7.07;3.80;;;9.00;99.90;;;;;;10450235;28;20374;-60
2022/11/28 01:23:19;;;;;;;7.45;3.60;;;8.90;99.90;;;;;;10459549;28;20520;-60
2022/11/28 01:28:20;;;;;;;6.05;3.55;;;9.00;99.90;;;;;;10466317;28;20367;-61
2022/11/28 01:33:21;;;;;;;5.75;3.75;;;9.00;99.90;;;;;;10468129;28;20051;-60
2022/11/28 01:38:22;;;;;;;8.82;3.50;;;9.10;99.90;;;;;;10465002;28;21188;-60
2022/11/28 01:43:23;;;;;;;5.10;3.65;;;9.00;99.90;;;;;;10468450;28;20086;-65
2022/11/28 01:48:32;;;;;;;5.65;3.92;;;9.00;99.90;;;;;;10467422;28;20045;-61
2022/11/28 01:53:34;;;;;;;;;;;9.00;99.90;;;;;;10451688;28;20196;-60
2022/11/28 01:58:40;;;;;;;6.28;3.38;;;9.00;99.90;;;;;;10452780;28;19952;-61
2022/11/28 02:03:49;;;;;;;8.93;3.65;;;8.90;99.90;;;;;;10466436;28;20040;-61
2022/11/28 02:08:51;;;;;;;8.52;3.65;;;9.10;99.90;;;;;;10452917;28;20028;-60
2022/11/28 02:14:04;;;;;;;7.88;3.65;;;9.00;99.90;;;;;;10462311;28;20017;-60
2022/11/28 02:19:36;;;;;;;5.75;3.47;;;9.00;99.90;;;;;;10464868;28;20020;-61
2022/11/28 02:24:56;;;;;;;6.95;3.83;;;9.00;99.90;;;;;;10459662;28;20044;-60
2022/11/28 02:30:31;;;;;;;9.95;4.50;;;9.00;99.90;;;;;;10467649;28;20033;-60
2022/11/28 02:35:40;;;;;;;6.85;3.95;;;9.00;99.90;;;;;;10464554;28;20261;-62
2022/11/28 02:40:57;;;;;;;7.82;4.40;;;9.00;99.90;;;;;;10451723;28;20143;-61
2022/11/28 02:46:15;;;;;;;6.40;3.95;;;9.00;99.90;;;;;;10464724;28;20029;-62
2022/11/28 02:51:40;;;;;;;7.28;4.20;;;9.00;99.90;;;;;;10469191;28;20036;-61
2022/11/28 02:56:53;;;;;;;7.55;4.20;;;9.00;99.90;;;;;;10467252;28;20024;-61
2022/11/28 03:01:54;;;;;;;6.53;3.80;;;9.00;99.90;;;;;;10475043;28;20024;-61
2022/11/28 03:07:00;;;;;;;7.45;4.32;;;9.00;99.90;;;;;;10471993;28;20048;-63
2022/11/28 03:12:35;;;;;;;8.38;4.70;;;9.00;99.90;;;;;;10465486;28;20538;-61
2022/11/28 03:18:08;;;;;;;7.03;4.32;;;9.00;99.90;;;;;;10470999;28;20033;-60
2022/11/28 03:23:09;;;;;;;8.43;4.47;;;9.00;99.90;;;;;;10462736;28;20036;-61
2022/11/28 03:28:31;;;;;;;8.00;4.40;;;9.00;99.90;;;;;;10469435;28;20435;-61
2022/11/28 03:33:36;;;;;;;6.38;3.95;;;9.00;99.90;;;;;;10468269;28;20063;-62
2022/11/28 03:38:41;;;;;;;8.10;4.97;;;9.00;99.90;;;;;;10471405;28;20112;-64
2022/11/28 03:43:49;;;;;;;6.85;4.53;;;9.00;99.90;;;;;;10468202;28;20040;-61
2022/11/28 03:48:57;;;;;;;9.07;4.88;;;9.00;99.90;;;;;;10467604;28;20045;-61
2022/11/28 03:54:14;;;;;;;10.77;4.85;;;9.00;99.90;;;;;;10466670;28;20025;-60
2022/11/28 03:59:29;;;;;;;7.60;4.20;;;9.00;99.90;;;;;;10473264;28;20133;-62
2022/11/28 04:04:39;;;;;;;8.18;4.80;;;9.00;99.90;;;;;;10464812;28;20160;-60
2022/11/28 04:10:06;;;;;;;7.45;5.07;;;9.00;99.90;;;;;;10469832;28;20039;-61
2022/11/28 04:15:36;;;;;;;7.80;4.43;;;9.00;99.90;;;;;;10467204;28;20029;-60
2022/11/28 04:20:54;;;;;;;7.82;4.43;;;9.00;99.90;;;;;;10454421;28;20417;-60
2022/11/28 04:26:03;;;;;;;11.68;4.50;;;9.00;99.90;;;;;;10465630;28;20051;-60
2022/11/28 04:31:05;;;;;;;7.20;3.97;;;8.70;99.90;;;;;;10470990;28;20021;-60
2022/11/28 04:36:08;;;;;;;7.80;3.70;;;9.00;99.90;;;;;;10469366;28;20020;-60
2022/11/28 04:41:12;;;;;;;5.75;3.83;;;9.00;99.90;;;;;;10471704;28;20021;-63
2022/11/28 04:46:39;;;;;;;6.25;4.03;;;9.00;99.90;;;;;;10461545;28;20399;-60
2022/11/28 04:52:03;;;;;;;7.65;4.10;;;9.10;99.90;;;;;;10462918;28;20032;-61
2022/11/28 04:57:14;;;;;;;8.07;4.15;;;9.10;99.90;;;;;;10464096;28;20033;-60
2022/11/28 05:02:17;;;;;;;7.03;4.38;;;9.10;99.90;;;;;;10445691;28;20028;-60
2022/11/28 05:07:18;;;;;;;6.25;4.13;;;9.10;99.90;;;;;;10460348;28;20027;-60
2022/11/28 05:12:18;;;;;;;6.10;4.00;;;9.10;99.90;;;;;;10447326;28;20025;-60
2022/11/28 05:17:19;;;;;;;7.60;4.13;;;9.10;99.90;;;;;;10466309;28;20028;-60
2022/11/28 05:22:20;;;;;;;7.93;4.28;;;9.10;99.90;;;;;;10461952;28;20021;-60
2022/11/28 05:27:20;;;;;;;6.55;3.75;;;9.10;99.90;;;;;;10462328;28;20040;-59
2022/11/28 05:32:21;;;;;;;7.35;3.90;;;9.10;99.90;;;;;;10468511;28;20501;-59
2022/11/28 05:37:22;;;;;;;7.60;3.67;;;9.10;99.90;;;;;;10454562;28;20033;-60
2022/11/28 05:42:24;;;;;;;5.45;3.50;;;9.10;99.90;;;;;;10463088;28;20253;-60
2022/11/28 05:47:25;;;;;;;6.97;3.55;;;9.10;99.90;;;;;;10462896;28;20045;-60
2022/11/28 05:52:28;;;;;;;6.13;4.22;;;9.10;99.90;;;;;;10445988;28;20271;-59
2022/11/28 05:57:31;;;;;;;5.22;3.28;;;9.10;99.90;;;;;;10466622;28;20143;-59
2022/11/28 06:02:34;;;;;;;5.15;3.30;;;9.20;99.90;;;;;;10470791;28;20032;-60
2022/11/28 06:07:35;;;;;;;7.65;3.65;;;9.20;99.90;;;;;;10471350;28;20036;-59
2022/11/28 06:12:36;;;;;;;4.45;3.10;;;9.20;99.90;;;;;;10469935;28;20017;-59
2022/11/28 06:17:36;;;;;;;5.75;3.33;;;9.20;99.90;;;;;;10475309;28;20021;-68
2022/11/28 06:22:37;;;;;;;5.85;3.28;;;9.20;99.90;;;;;;10471050;28;20048;-60
2022/11/28 06:27:38;;;;;;;5.50;3.42;;;9.20;99.90;;;;;;10470358;28;20036;-60
2022/11/28 06:32:38;;;;;;;5.80;3.58;;;9.20;99.90;;;;;;10475614;28;20522;-60
2022/11/28 06:37:39;;;;;;;7.22;3.58;;;9.20;99.90;;;;;;10474982;28;20480;-60
2022/11/28 06:42:39;;;;;;;5.97;3.45;;;9.20;99.90;;;;;;10468812;28;20489;-60
2022/11/28 06:47:40;;;;;;;6.43;3.40;;;9.20;99.90;;;;;;10469551;28;20135;-60
2022/11/28 06:52:41;;;;;;;5.95;3.13;;;9.60;99.90;;;;;;10469357;28;20032;-60
2022/11/28 06:57:42;;;;;;;5.70;3.15;;;9.20;99.90;;;;;;10472741;28;20016;-60
2022/11/28 07:02:43;;;;;;;5.97;3.45;;;9.20;99.90;;;;;;10453239;28;20029;-60
2022/11/28 07:07:44;;;;;;;6.13;3.50;;;9.20;99.90;;;;;;10462918;28;20490;-60
2022/11/28 07:12:45;;;;;;;5.40;3.47;;;9.20;99.90;;;;;;10465312;28;20056;-60
2022/11/28 07:17:45;;;;;;;5.43;3.47;;;9.20;99.90;;;;;;10468998;28;20036;-60
2022/11/28 07:22:49;;;;;;;5.82;3.40;;;9.20;99.90;;;;;;10463706;28;20389;-60
2022/11/28 07:27:49;;;;;;;5.35;3.28;;;9.20;99.90;;;;;;10467491;28;20386;-61
2022/11/28 07:32:50;;;;;;;4.88;3.15;;;9.20;99.90;;;;;;10451465;28;20021;-60
2022/11/28 07:37:51;;;;;;;5.25;3.30;;;9.30;99.90;;;;;;10467001;28;20040;-60
2022/11/28 07:42:51;;;;;;;5.35;3.47;;;9.30;99.90;;;;;;10462311;28;20021;-60
2022/11/28 07:47:52;;;;;;;4.78;3.38;;;9.20;99.90;;;;;;10459576;28;20045;-61
2022/11/28 07:52:53;;;;;;;4.50;2.92;;;9.20;99.90;;;;;;10454516;28;20036;-60
2022/11/28 07:57:54;;;;;;;5.85;2.80;;;9.30;99.90;;;;;;10455150;28;20378;-62
2022/11/28 08:02:54;;;;;;;6.35;3.15;;;9.30;99.90;;;;;;10446928;28;20017;-61
2022/11/28 08:07:55;;;;;;;3.80;2.40;;;9.30;99.90;;;;;;10452497;28;20028;-62
2022/11/28 08:12:56;;;;;;;5.32;3.38;;;9.30;99.90;;;;;;10457000;28;20489;-60
2022/11/28 08:17:56;;;;;;;4.45;2.65;;;9.30;99.90;;;;;;10450072;28;20025;-60
2022/11/28 08:22:57;;;;;;;3.75;2.65;;;9.30;99.90;;;;;;10451410;28;20057;-60
2022/11/28 08:27:58;;;;;;;4.28;2.50;;;9.30;99.90;;;;;;10456076;28;20040;-61
2022/11/28 08:32:59;;;;;;;4.55;2.55;;;9.30;99.90;;;;;;10458530;28;20508;-60
2022/11/28 08:37:59;;;;;;;4.05;2.65;;;9.30;99.90;;;;;;10463345;28;20024;-59
2022/11/28 08:43:00;;;;;;;3.83;2.65;;;9.30;99.90;;;;;;10460284;28;20029;-60
2022/11/28 08:48:01;;;;;;;4.28;2.72;;;9.30;99.90;;;;;;10469281;28;20040;-60
2022/11/28 08:53:01;;;;;;;3.55;2.40;;;9.30;99.90;;;;;;10422350;28;20017;-61
2022/11/28 08:58:02;;;;;;;3.42;2.38;;;9.30;99.90;;;;;;10379199;28;20358;-70
2022/11/28 09:03:03;;;;;;;3.63;2.42;;;9.30;99.90;;;;;;10377680;28;20212;-60
2022/11/28 09:08:04;;;;;;;4.10;2.42;;;9.40;99.90;;;;;;10364101;28;20806;-60
2022/11/28 09:13:06;;;;;;;3.05;2.13;;;9.30;99.90;;;;;;10374400;28;20037;-60
2022/11/28 09:18:07;;;;;;;4.65;2.53;;;9.40;99.90;;;;;;10377517;28;20047;-60
2022/11/28 09:23:09;;;;;;;3.47;2.28;;;9.40;99.90;;;;;;10378238;28;20067;-60
2022/11/28 09:28:10;;;;;;;2.88;1.90;;;9.40;99.90;;;;;;10378720;28;20025;-61
2022/11/28 09:33:12;;;;;;;3.28;2.13;;;9.40;99.90;;;;;;10357909;28;20143;-60
2022/11/28 09:38:12;;;;;;;3.03;2.00;;;9.40;99.90;;;;;;10362263;28;20496;-61
2022/11/28 09:43:36;;;;;;;3.17;1.98;;;9.40;99.90;;;;;;10377841;28;20775;-61
2022/11/28 09:48:44;;;;;;;2.45;1.83;;;9.40;99.90;;;;;;10370667;28;20510;-61
2022/11/28 09:54:24;;;;;;;2.95;2.10;;;9.50;99.90;;;;;;10373850;28;20127;-61
2022/11/28 09:59:44;;;;;;;3.25;2.17;;;9.50;99.90;;;;;;10370467;28;20031;-61
2022/11/28 10:05:23;;;;;;;3.20;2.13;;;9.40;99.90;;;;;;10350684;28;20049;-61
2022/11/28 10:10:51;;;;;;;3.53;2.10;;;9.50;99.90;;;;;;10332944;28;20663;-60
2022/11/28 10:16:13;;;;;;;3.40;2.30;;;9.50;99.90;;;;;;10358976;28;20410;-61
2022/11/28 10:21:21;;;;;;;3.33;2.30;;;9.50;99.90;;;;;;10366304;28;20291;-61
2022/11/28 10:26:39;;;;;;;3.08;1.95;;;9.60;99.90;;;;;;10355396;28;21175;-61
2022/11/28 10:31:43;;;;;;;3.15;1.80;;;9.50;99.90;;;;;;10369374;28;20107;-61
2022/11/28 10:36:50;;;;;;;2.78;1.90;;;9.50;99.90;;;;;;10363494;28;20483;-61
2022/11/28 10:42:11;;;;;;;2.80;1.85;;;9.50;99.90;;;;;;10377262;28;20020;-60
2022/11/28 10:47:37;;;;;;;3.85;2.22;;;9.50;99.90;;;;;;10367058;28;20060;-61
2022/11/28 10:52:50;;;;;;;4.40;1.70;;;9.60;99.90;;;;;;10371827;28;20040;-60
2022/11/28 10:58:17;;;;;;;3.83;1.85;;;9.60;99.90;;;;;;10391900;28;20067;-60
2022/11/28 11:03:18;;;;;;;2.22;1.63;;;9.60;99.90;;;;;;10371635;28;20126;-61
2022/11/28 11:08:24;;;;;;;1.77;1.50;;;9.60;99.90;;;;;;10377739;28;20033;-61
2022/11/28 11:13:28;;;;;;;2.25;1.45;;;9.60;99.90;;;;;;10380794;28;20028;-60
2022/11/28 11:18:49;;;;;;;2.72;1.80;;;9.60;99.90;;;;;;10389190;28;20017;-60
2022/11/28 11:24:11;;;;;;;3.42;1.75;;;9.60;99.90;;;;;;10376829;28;20090;-60
2022/11/28 11:29:28;;;;;;;3.75;2.00;;;9.60;99.90;;;;;;10377341;28;20024;-60
2022/11/28 11:34:37;;;;;;;3.15;1.58;;;9.60;99.90;;;;;;10367290;28;20391;-61
2022/11/28 11:39:49;;;;;;;2.88;1.77;;;9.60;99.90;;;;;;10359079;28;20029;-61
2022/11/28 11:44:50;;;;;;;3.35;2.05;;;9.70;99.90;;;;;;10360694;28;20043;-61
2022/11/28 11:50:03;;;;;;;3.75;1.95;;;9.70;99.90;;;;;;10379748;28;20048;-61
2022/11/28 11:55:13;;;;;;;3.63;1.80;;;9.70;99.90;;;;;;10381324;28;20409;-61
2022/11/28 12:00:19;;;;;;;2.75;1.90;;;9.70;99.90;;;;;;10372309;28;20037;-61
2022/11/28 12:05:30;;;;;;;3.25;1.80;;;9.70;99.90;;;;;;10386883;28;20319;-61
2022/11/28 12:10:36;;;;;;;1.98;1.50;;;9.70;99.90;;;;;;10385355;28;20197;-61
2022/11/28 12:16:08;;;;;;;2.55;1.90;;;9.70;99.90;;;;;;10379254;28;20412;-61
2022/11/28 12:21:30;;;;;;;3.50;1.90;;;9.70;99.90;;;;;;10378040;28;20576;-61
2022/11/28 12:26:45;;;;;;;2.85;1.77;;;9.70;99.90;;;;;;10381809;28;20358;-65
2022/11/28 12:32:08;;;;;;;3.05;1.92;;;9.70;99.90;;;;;;10377874;28;20160;-60
2022/11/28 12:37:14;;;;;;;2.05;1.60;;;9.70;99.90;;;;;;10376693;28;20055;-62
2022/11/28 12:42:37;;;;;;;3.08;1.85;;;9.80;99.90;;;;;;10379086;28;20119;-60
2022/11/28 12:48:02;;;;;;;2.65;1.75;;;9.80;99.90;;;;;;10358489;28;20048;-61
2022/11/28 12:53:24;;;;;;;2.92;1.70;;;9.80;99.90;;;;;;10357309;28;20762;-60
2022/11/28 12:58:50;;;;;;;4.43;2.15;;;9.80;99.90;;;;;;10359221;28;20377;-61
2022/11/28 13:03:54;;;;;;;2.72;2.00;;;9.90;99.90;;;;;;10361311;28;20028;-60
2022/11/28 13:09:00;;;;;;;3.45;2.15;;;9.90;99.90;;;;;;10367287;28;20467;-61
2022/11/28 13:14:07;;;;;;;2.97;2.03;;;9.90;99.90;;;;;;10369392;28;20032;-63
2022/11/28 13:19:33;;;;;;;3.05;2.00;;;9.90;99.90;;;;;;10357634;28;20076;-61
2022/11/28 13:24:47;;;;;;;2.50;1.90;;;9.90;99.90;;;;;;10318264;28;20630;-60
2022/11/28 13:30:12;;;;;;;2.63;1.80;;;9.90;99.90;;;;;;10357399;28;20078;-62
2022/11/28 13:35:15;;;;;;;5.47;2.20;;;9.90;99.90;;;;;;10372139;28;20036;-61
2022/11/28 13:40:23;;;;;;;4.55;2.80;;;9.90;99.90;;;;;;10373864;28;20032;-60
2022/11/28 13:45:33;;;;;;;3.30;2.40;;;10.00;99.90;;;;;;10377279;28;20151;-61
2022/11/28 13:50:38;;;;;;;5.10;2.58;;;9.90;99.90;;;;;;10390705;28;20517;-61
2022/11/28 13:55:47;;;;;;;3.47;2.10;;;9.90;99.90;;;;;;10360661;28;20127;-60
2022/11/28 14:01:14;;;;;;;3.80;2.55;;;9.90;99.90;;;;;;10372324;28;20025;-60
2022/11/28 14:06:38;;;;;;;8.07;2.78;;;9.90;99.90;;;;;;10370813;28;20265;-60
2022/11/28 14:11:45;;;;;;;4.75;2.58;;;9.90;99.90;;;;;;10353593;28;20033;-60
2022/11/28 14:16:57;;;;;;;4.93;2.47;;;9.90;99.90;;;;;;10359123;28;20032;-59
2022/11/28 14:22:13;;;;;;;4.97;2.70;;;9.90;99.90;;;;;;10377849;28;20029;-60
2022/11/28 14:27:25;;;;;;;6.43;2.83;;;9.90;99.90;;;;;;10373736;28;20132;-59
2022/11/28 14:32:31;;;;;;;4.72;2.70;;;9.90;99.90;;;;;;10380508;28;20033;-59
2022/11/28 14:37:33;;;;;;;5.07;2.92;;;10.20;99.90;;;;;;10372165;28;20416;-60
2022/11/28 14:42:35;;;;;;;4.50;2.42;;;9.90;99.90;;;;;;10376762;28;20417;-63
2022/11/28 14:47:41;;;;;;;5.38;2.88;;;9.90;99.90;;;;;;10386977;28;20253;-59
2022/11/28 14:52:47;;;;;;;5.10;2.65;;;9.90;99.90;;;;;;10381035;28;20033;-60
2022/11/28 14:57:58;;;;;;;5.30;3.10;;;9.90;99.90;;;;;;10363181;28;20021;-61
2022/11/28 15:03:14;;;;;;;4.88;2.80;;;9.90;99.90;;;;;;10359122;28;20558;-60
2022/11/28 15:08:28;;;;;;;6.22;2.85;;;9.90;99.90;;;;;;10355742;28;20026;-59
2022/11/28 15:13:38;;;;;;;4.88;2.60;;;9.90;99.90;;;;;;10357830;28;20076;-59
2022/11/28 15:18:46;;;;;;;5.53;3.13;;;9.90;99.90;;;;;;10367042;28;20040;-59
2022/11/28 15:23:47;;;;;;;5.20;2.83;;;9.90;99.90;;;;;;10337059;28;20083;-60
2022/11/28 15:28:48;;;;;;;4.35;2.60;;;9.90;99.90;;;;;;10364743;28;20092;-59
2022/11/28 15:33:49;;;;;;;5.68;3.17;;;9.90;99.90;;;;;;10367334;28;20025;-60
2022/11/28 15:38:50;;;;;;;8.52;3.65;;;9.90;99.90;;;;;;10373612;28;20029;-60
2022/11/28 15:43:53;;;;;;;6.25;3.05;;;9.90;99.90;;;;;;10371857;28;20025;-60
2022/11/28 15:48:54;;;;;;;5.95;3.35;;;9.90;99.90;;;;;;10368281;28;20912;-60
2022/11/28 15:53:55;;;;;;;5.35;3.15;;;9.90;99.90;;;;;;10388392;28;20029;-59
2022/11/28 15:58:56;;;;;;;7.65;3.30;;;10.00;99.90;;;;;;10451322;28;20389;-60
2022/11/28 16:04:06;;;;;;;5.07;2.80;;;10.00;99.90;;;;;;10451455;28;20033;-61
2022/11/28 16:09:28;;;;;;;6.45;3.55;;;10.00;99.90;;;;;;10450405;28;20021;-59
2022/11/28 16:14:43;;;;;;;9.82;3.72;;;10.00;99.90;;;;;;10453939;28;20047;-60
2022/11/28 16:19:44;;;;;;;6.55;3.70;;;10.00;99.90;;;;;;10458103;28;20040;-59
2022/11/28 16:24:46;;;;;;;8.73;3.85;;;10.00;99.90;;;;;;10427722;28;20095;-61
2022/11/28 16:29:47;;;;;;;8.45;3.92;;;10.00;99.90;;;;;;10444834;28;20048;-60
2022/11/28 16:34:50;;;;;;;12.82;4.72;;;10.00;99.90;;;;;;10456884;28;20261;-64
2022/11/28 16:40:15;;;;;;;9.40;4.15;;;10.00;99.90;;;;;;10460414;28;20029;-62
2022/11/28 16:45:20;;;;;;;9.50;4.05;;;10.00;99.90;;;;;;10443813;28;20112;-65
2022/11/28 16:50:22;;;;;;;14.05;5.10;;;10.00;99.90;;;;;;10452533;28;20043;-61
2022/11/28 16:55:26;;;;;;;16.75;5.85;;;10.00;99.90;;;;;;10455122;28;20047;-62
2022/11/28 17:00:28;;;;;;;19.13;7.20;;;10.00;99.90;;;;;;10450572;28;20047;-62
2022/11/28 17:05:29;;;;;;;24.83;9.02;;;10.00;99.90;;;;;;10449569;28;20044;-61
2022/11/28 17:10:30;;;;;;;26.50;9.98;;;10.00;99.90;;;;;;10450260;28;20093;-65
2022/11/28 17:15:31;;;;;;;28.77;9.88;;;9.90;99.90;;;;;;10459440;28;20421;-61
2022/11/28 17:20:31;;;;;;;24.55;8.38;;;10.00;99.90;;;;;;10453793;28;20029;-61
2022/11/28 17:25:32;;;;;;;28.27;10.10;;;10.00;99.90;;;;;;10449502;28;20043;-60
2022/11/28 17:30:33;;;;;;;24.02;8.70;;;10.00;99.90;;;;;;10451141;28;20032;-61
2022/11/28 17:35:41;;;;;;;33.47;10.55;;;10.00;99.90;;;;;;10456672;28;20091;-65
2022/11/28 17:40:43;;;;;;;22.92;7.95;;;10.00;99.90;;;;;;10457812;28;20025;-61
2022/11/28 17:45:45;;;;;;;30.77;9.27;;;10.00;99.90;;;;;;10444341;28;20135;-60
2022/11/28 17:50:47;;;;;;;23.85;8.63;;;10.10;99.90;;;;;;10461539;28;20071;-60
2022/11/28 17:55:57;;;;;;;25.30;9.05;;;10.20;99.90;;;;;;10461040;28;20024;-60
2022/11/28 18:00:58;;;;;;;31.17;9.05;;;10.20;99.90;;;;;;10455717;28;20029;-61
2022/11/28 18:05:58;;;;;;;20.80;8.27;;;10.20;99.90;;;;;;10442358;28;20036;-60
2022/11/28 18:11:08;;;;;;;25.70;9.25;;;10.30;99.90;;;;;;10451527;28;20307;-60
2022/11/28 18:16:10;;;;;;;21.80;7.78;;;10.30;99.90;;;;;;10465139;28;20052;-61
2022/11/28 18:21:12;;;;;;;23.77;7.32;;;10.30;99.90;;;;;;10461669;28;20464;-61
2022/11/28 18:26:16;;;;;;;21.45;8.13;;;10.20;99.90;;;;;;10445530;28;20028;-60
2022/11/28 18:31:25;;;;;;;28.77;7.75;;;10.20;99.90;;;;;;10457592;28;20426;-61
2022/11/28 18:36:27;;;;;;;24.40;7.57;;;10.20;99.90;;;;;;10459087;28;20061;-60
2022/11/28 18:41:29;;;;;;;28.17;8.35;;;10.20;99.90;;;;;;10450396;28;20025;-60
2022/11/28 18:46:30;;;;;;;20.98;8.20;;;10.20;99.90;;;;;;10452766;28;20036;-60
2022/11/28 18:51:33;;;;;;;27.20;9.13;;;10.20;99.90;;;;;;10459835;28;20037;-59
2022/11/28 18:56:34;;;;;;;22.13;7.80;;;10.20;99.90;;;;;;10454402;28;20047;-60
2022/11/28 19:01:35;;;;;;;20.38;8.70;;;10.20;99.90;;;;;;10440971;28;20486;-61
2022/11/28 19:06:37;;;;;;;23.40;8.38;;;10.20;99.90;;;;;;10450036;28;20040;-60
2022/11/28 19:11:39;;;;;;;20.90;8.23;;;10.20;99.90;;;;;;10457343;28;20304;-60
2022/11/28 19:16:40;;;;;;;21.50;8.85;;;10.30;99.90;;;;;;10454878;28;20543;-60
2022/11/28 19:21:42;;;;;;;20.58;7.50;;;10.20;99.90;;;;;;10459948;28;20427;-60
2022/11/28 19:26:42;;;;;;;23.40;8.02;;;10.20;99.90;;;;;;10459539;28;20044;-63
2022/11/28 19:31:43;;;;;;;23.75;8.38;;;10.20;99.90;;;;;;10452939;28;20014;-63
2022/11/28 19:36:46;;;;;;;25.60;7.82;;;10.20;99.90;;;;;;10451451;28;20397;-62
2022/11/28 19:41:48;;;;;;;20.83;7.18;;;10.20;99.90;;;;;;10469654;28;20483;-61
2022/11/28 19:46:49;;;;;;;28.05;8.70;;;10.20;99.90;;;;;;10463056;28;20055;-63
2022/11/28 19:51:50;;;;;;;20.15;7.65;;;10.20;99.90;;;;;;10457067;28;20115;-61
2022/11/28 19:56:51;;;;;;;19.88;7.65;;;10.30;99.90;;;;;;10456880;28;20051;-64
2022/11/28 20:01:52;;;;;;;17.55;6.60;;;10.20;99.90;;;;;;10430801;28;20075;-61
2022/11/28 20:06:53;;;;;;;22.25;7.90;;;10.20;99.90;;;;;;10445866;28;20040;-60
2022/11/28 20:11:54;;;;;;;22.08;7.47;;;10.20;99.90;;;;;;10447764;28;20032;-63
2022/11/28 20:16:54;;;;;;;20.17;7.95;;;10.20;99.90;;;;;;10460278;28;20020;-60
2022/11/28 20:21:59;;;;;;;22.98;8.32;;;10.20;99.90;;;;;;10449367;28;20436;-61
2022/11/28 20:27:00;;;;;;;26.52;7.97;;;10.20;99.90;;;;;;10438631;28;20040;-62
2022/11/28 20:32:01;;;;;;;24.63;7.95;;;10.30;99.90;;;;;;10515750;22;20473;-62
2022/11/28 20:37:01;;;;;;;24.08;8.20;;;10.20;99.90;;;;;;10523465;28;20053;-63
2022/11/28 20:42:02;;;;;;;26.70;8.50;;;10.20;99.90;;;;;;10521132;28;20042;-59
2022/11/28 20:47:03;;;;;;;27.05;9.52;;;10.20;99.90;;;;;;10522214;28;20039;-60
2022/11/28 20:52:04;;;;;;;19.52;8.18;;;10.20;99.90;;;;;;10524174;28;20024;-61
2022/11/28 20:57:05;;;;;;;26.85;8.05;;;10.20;99.90;;;;;;10522441;28;20500;-60
2022/11/28 21:02:06;;;;;;;21.65;8.32;;;10.30;99.90;;;;;;10521956;28;20016;-61
2022/11/28 21:07:07;;;;;;;26.48;8.40;;;10.20;99.90;;;;;;10520802;28;20090;-61
2022/11/28 21:12:08;;;;;;;24.83;8.35;;;10.20;99.90;;;;;;10527730;22;20048;-60
2022/11/28 21:17:09;;;;;;;21.27;8.15;;;10.20;99.90;;;;;;10517991;28;20020;-61
2022/11/28 21:22:09;;;;;;;28.02;9.07;;;10.20;99.90;;;;;;10515698;28;20068;-65
2022/11/28 21:27:10;;;;;;;23.17;8.48;;;10.20;99.90;;;;;;10514373;28;20032;-64
2022/11/28 21:32:12;;;;;;;26.58;8.50;;;10.20;99.90;;;;;;10518510;28;20143;-60
2022/11/28 21:37:13;;;;;;;19.35;7.38;;;10.20;99.90;;;;;;10515155;28;20070;-60
2022/11/28 21:42:13;;;;;;;22.98;8.15;;;10.20;99.90;;;;;;10515185;28;20119;-64
2022/11/28 21:47:14;;;;;;;23.45;7.82;;;10.20;99.90;;;;;;10515062;28;20032;-63
2022/11/28 21:52:15;;;;;;;23.13;7.50;;;10.20;99.90;;;;;;10517025;28;20577;-68
2022/11/28 21:57:16;;;;;;;26.50;8.40;;;10.20;99.90;;;;;;10521142;28;20052;-64
2022/11/28 22:02:17;;;;;;;24.58;8.20;;;10.20;99.90;;;;;;10522555;28;20020;-65
2022/11/28 22:07:18;;;;;;;28.20;8.38;;;10.20;99.90;;;;;;10520809;28;20492;-61
2022/11/28 22:12:18;;;;;;;26.15;8.05;;;10.20;99.90;;;;;;10520263;28;20496;-61
2022/11/28 22:17:19;;;;;;;23.02;7.57;;;10.30;99.90;;;;;;10522404;28;20055;-61
2022/11/28 22:22:21;;;;;;;21.45;7.00;;;10.20;99.90;;;;;;10521603;28;20024;-62
2022/11/28 22:27:21;;;;;;;19.35;7.65;;;10.20;99.90;;;;;;10521582;28;20043;-68
2022/11/28 22:32:22;;;;;;;21.30;7.45;;;10.20;99.90;;;;;;10505175;28;20043;-68
2022/11/28 22:37:23;;;;;;;23.73;7.28;;;10.20;99.90;;;;;;10513195;28;20104;-69
2022/11/28 22:42:24;;;;;;;22.45;7.85;;;10.20;99.90;;;;;;10530467;22;20390;-62
2022/11/28 22:47:24;;;;;;;20.10;7.38;;;10.20;99.90;;;;;;10438307;28;20127;-69
2022/11/28 22:52:26;;;;;;;21.58;7.53;;;10.20;99.90;;;;;;10448775;28;20025;-62
2022/11/28 22:57:26;;;;;;;22.40;7.45;;;10.20;99.90;;;;;;10447290;28;20386;-64
2022/11/28 23:02:27;;;;;;;24.40;8.05;;;10.30;99.90;;;;;;10446973;28;20025;-68
2022/11/28 23:07:28;;;;;;;23.95;8.05;;;10.20;99.90;;;;;;10448724;28;20302;-68
2022/11/28 23:12:29;;;;;;;23.02;7.70;;;10.30;99.90;;;;;;10448529;28;20025;-68
2022/11/28 23:17:31;;;;;;;20.55;7.93;;;10.30;99.90;;;;;;10455726;22;20048;-68
2022/11/28 23:22:33;;;;;;;23.30;8.15;;;10.20;99.90;;;;;;10466137;28;20043;-69
2022/11/28 23:27:33;;;;;;;28.13;8.77;;;10.20;99.90;;;;;;10465556;28;20036;-68
2022/11/28 23:32:34;;;;;;;21.48;8.02;;;10.30;99.90;;;;;;10472121;28;20503;-68
2022/11/28 23:37:38;;;;;;;22.70;7.82;;;10.30;99.90;;;;;;10471012;28;20110;-68
2022/11/28 23:42:40;;;;;;;24.88;7.85;;;10.30;99.90;;;;;;10461699;28;20078;-68
2022/11/28 23:47:41;;;;;;;17.17;6.50;;;10.30;99.90;;;;;;10468948;28;20047;-62
2022/11/28 23:52:41;;;;;;;20.73;7.53;;;10.20;99.90;;;;;;10475209;22;20064;-69
2022/11/28 23:57:42;;;;;;;21.25;8.05;;;10.30;99.90;;;;;;10467517;28;20028;-69
